sensor_id;sensor_type;location;lat;lon;timestamp;temperature;humidity
21271;DHT22;10795;50.796;3.860;2022-12-29T00:02:04;11.40;99.90
21271;DHT22;10795;50.796;3.860;2022-12-29T00:04:30;11.40;99.90
21271;DHT22;10795;50.796;3.860;2022-12-29T00:06:55;11.40;99.90
21271;DHT22;10795;50.796;3.860;2022-12-29T00:09:21;11.40;99.90
21271;DHT22;10795;50.796;3.860;2022-12-29T00:11:47;11.50;99.90
21271;DHT22;10795;50.796;3.860;2022-12-29T00:14:15;11.50;99.90
21271;DHT22;10795;50.796;3.860;2022-12-29T00:17:00;11.40;99.90
21271;DHT22;10795;50.796;3.860;2022-12-29T00:19:26;11.50;99.90
21271;DHT22;10795;50.796;3.860;2022-12-29T00:22:13;11.50;99.90
21271;DHT22;10795;50.796;3.860;2022-12-29T00:24:58;11.50;99.90
21271;DHT22;10795;50.796;3.860;2022-12-29T00:27:28;11.50;99.90
21271;DHT22;10795;50.796;3.860;2022-12-29T00:30:19;11.50;99.90
21271;DHT22;10795;50.796;3.860;2022-12-29T00:33:17;11.60;99.90
21271;DHT22;10795;50.796;3.860;2022-12-29T00:36:11;11.60;99.90
21271;DHT22;10795;50.796;3.860;2022-12-29T00:38:41;11.60;99.90
21271;DHT22;10795;50.796;3.860;2022-12-29T00:41:27;11.60;99.90
21271;DHT22;10795;50.796;3.860;2022-12-29T00:44:13;11.70;99.90
21271;DHT22;10795;50.796;3.860;2022-12-29T00:46:41;11.60;99.90
21271;DHT22;10795;50.796;3.860;2022-12-29T00:49:09;11.60;99.90
21271;DHT22;10795;50.796;3.860;2022-12-29T00:51:55;11.60;99.90
21271;DHT22;10795;50.796;3.860;2022-12-29T00:54:21;11.50;99.90
21271;DHT22;10795;50.796;3.860;2022-12-29T00:56:49;11.50;99.90
21271;DHT22;10795;50.796;3.860;2022-12-29T00:59:17;11.60;99.90
21271;DHT22;10795;50.796;3.860;2022-12-29T01:01:44;11.50;99.90
21271;DHT22;10795;50.796;3.860;2022-12-29T01:04:11;11.40;99.90
21271;DHT22;10795;50.796;3.860;2022-12-29T01:06:38;11.40;99.90
21271;DHT22;10795;50.796;3.860;2022-12-29T01:09:04;11.30;99.90
21271;DHT22;10795;50.796;3.860;2022-12-29T01:11:48;11.30;99.90
21271;DHT22;10795;50.796;3.860;2022-12-29T01:14:14;11.30;99.90
21271;DHT22;10795;50.796;3.860;2022-12-29T01:16:40;11.20;99.90
21271;DHT22;10795;50.796;3.860;2022-12-29T01:19:06;11.20;99.90
21271;DHT22;10795;50.796;3.860;2022-12-29T01:21:32;11.20;99.90
21271;DHT22;10795;50.796;3.860;2022-12-29T01:23:58;11.20;99.90
21271;DHT22;10795;50.796;3.860;2022-12-29T01:26:24;11.20;99.90
21271;DHT22;10795;50.796;3.860;2022-12-29T01:28:51;11.20;99.90
21271;DHT22;10795;50.796;3.860;2022-12-29T01:31:17;11.30;99.90
21271;DHT22;10795;50.796;3.860;2022-12-29T01:33:43;11.20;99.90
21271;DHT22;10795;50.796;3.860;2022-12-29T01:36:12;11.10;99.90
21271;DHT22;10795;50.796;3.860;2022-12-29T01:38:39;11.10;99.90
21271;DHT22;10795;50.796;3.860;2022-12-29T01:41:06;11.10;99.90
21271;DHT22;10795;50.796;3.860;2022-12-29T01:43:43;11.10;99.90
21271;DHT22;10795;50.796;3.860;2022-12-29T01:51:35;11.00;99.90
21271;DHT22;10795;50.796;3.860;2022-12-29T01:54:07;11.00;99.90
21271;DHT22;10795;50.796;3.860;2022-12-29T01:56:35;11.00;99.90
21271;DHT22;10795;50.796;3.860;2022-12-29T01:59:05;10.90;99.90
21271;DHT22;10795;50.796;3.860;2022-12-29T02:01:32;10.80;99.90
21271;DHT22;10795;50.796;3.860;2022-12-29T02:04:00;10.70;99.90
21271;DHT22;10795;50.796;3.860;2022-12-29T02:06:36;10.80;99.90
21271;DHT22;10795;50.796;3.860;2022-12-29T02:09:03;10.70;99.90
21271;DHT22;10795;50.796;3.860;2022-12-29T02:11:30;10.60;99.90
21271;DHT22;10795;50.796;3.860;2022-12-29T02:13:56;10.60;99.90
21271;DHT22;10795;50.796;3.860;2022-12-29T02:16:38;10.60;99.90
21271;DHT22;10795;50.796;3.860;2022-12-29T02:22:10;10.50;99.90
21271;DHT22;10795;50.796;3.860;2022-12-29T02:27:53;10.60;99.90
21271;DHT22;10795;50.796;3.860;2022-12-29T02:46:55;10.50;99.90
21271;DHT22;10795;50.796;3.860;2022-12-29T02:52:09;10.50;99.90
21271;DHT22;10795;50.796;3.860;2022-12-29T02:54:37;10.40;99.90
21271;DHT22;10795;50.796;3.860;2022-12-29T03:00:04;10.30;99.90
21271;DHT22;10795;50.796;3.860;2022-12-29T03:08:02;10.20;99.90
21271;DHT22;10795;50.796;3.860;2022-12-29T03:16:24;10.20;99.90
21271;DHT22;10795;50.796;3.860;2022-12-29T03:21:39;10.30;99.90
21271;DHT22;10795;50.796;3.860;2022-12-29T03:24:35;10.30;99.90
21271;DHT22;10795;50.796;3.860;2022-12-29T03:27:05;10.30;99.90
21271;DHT22;10795;50.796;3.860;2022-12-29T03:29:45;10.30;99.90
21271;DHT22;10795;50.796;3.860;2022-12-29T03:32:15;10.40;99.90
21271;DHT22;10795;50.796;3.860;2022-12-29T03:34:42;10.30;99.90
21271;DHT22;10795;50.796;3.860;2022-12-29T03:37:14;10.30;99.90
21271;DHT22;10795;50.796;3.860;2022-12-29T03:39:41;10.50;99.90
21271;DHT22;10795;50.796;3.860;2022-12-29T03:42:14;10.50;99.90
21271;DHT22;10795;50.796;3.860;2022-12-29T03:44:43;10.40;99.90
21271;DHT22;10795;50.796;3.860;2022-12-29T03:47:14;10.40;99.90
21271;DHT22;10795;50.796;3.860;2022-12-29T03:49:40;10.30;99.90
21271;DHT22;10795;50.796;3.860;2022-12-29T03:52:07;10.30;99.90
21271;DHT22;10795;50.796;3.860;2022-12-29T03:54:37;10.30;99.90
21271;DHT22;10795;50.796;3.860;2022-12-29T03:57:04;10.20;99.90
21271;DHT22;10795;50.796;3.860;2022-12-29T03:59:42;10.10;99.90
21271;DHT22;10795;50.796;3.860;2022-12-29T04:02:08;10.20;99.90
21271;DHT22;10795;50.796;3.860;2022-12-29T04:04:34;10.20;99.90
21271;DHT22;10795;50.796;3.860;2022-12-29T04:06:59;10.10;99.90
21271;DHT22;10795;50.796;3.860;2022-12-29T04:09:26;10.10;99.90
21271;DHT22;10795;50.796;3.860;2022-12-29T04:11:52;10.10;99.90
21271;DHT22;10795;50.796;3.860;2022-12-29T04:14:19;10.10;99.90
21271;DHT22;10795;50.796;3.860;2022-12-29T04:16:44;10.10;99.90
21271;DHT22;10795;50.796;3.860;2022-12-29T04:19:11;10.10;99.90
21271;DHT22;10795;50.796;3.860;2022-12-29T04:21:37;10.20;99.90
21271;DHT22;10795;50.796;3.860;2022-12-29T04:24:04;10.10;99.90
21271;DHT22;10795;50.796;3.860;2022-12-29T04:26:33;10.10;99.90
21271;DHT22;10795;50.796;3.860;2022-12-29T04:29:34;10.10;99.90
21271;DHT22;10795;50.796;3.860;2022-12-29T04:32:23;10.10;99.90
21271;DHT22;10795;50.796;3.860;2022-12-29T04:34:51;10.00;99.90
21271;DHT22;10795;50.796;3.860;2022-12-29T04:37:18;10.10;99.90
21271;DHT22;10795;50.796;3.860;2022-12-29T04:39:44;10.10;99.90
21271;DHT22;10795;50.796;3.860;2022-12-29T04:42:10;10.00;99.90
21271;DHT22;10795;50.796;3.860;2022-12-29T04:44:36;10.20;99.90
21271;DHT22;10795;50.796;3.860;2022-12-29T04:47:16;10.10;99.90
21271;DHT22;10795;50.796;3.860;2022-12-29T04:49:54;10.30;99.90
21271;DHT22;10795;50.796;3.860;2022-12-29T04:52:42;10.20;99.90
21271;DHT22;10795;50.796;3.860;2022-12-29T04:55:10;10.20;99.90
21271;DHT22;10795;50.796;3.860;2022-12-29T04:57:36;10.10;99.90
21271;DHT22;10795;50.796;3.860;2022-12-29T05:00:03;10.20;99.90
21271;DHT22;10795;50.796;3.860;2022-12-29T05:02:29;10.20;99.90
21271;DHT22;10795;50.796;3.860;2022-12-29T05:04:56;10.20;99.90
21271;DHT22;10795;50.796;3.860;2022-12-29T05:07:22;10.30;99.90
21271;DHT22;10795;50.796;3.860;2022-12-29T05:09:48;10.20;99.90
21271;DHT22;10795;50.796;3.860;2022-12-29T05:12:14;10.30;99.90
21271;DHT22;10795;50.796;3.860;2022-12-29T05:14:51;10.40;99.90
21271;DHT22;10795;50.796;3.860;2022-12-29T05:17:18;10.40;99.90
21271;DHT22;10795;50.796;3.860;2022-12-29T05:19:44;10.40;99.90
21271;DHT22;10795;50.796;3.860;2022-12-29T05:22:11;10.40;99.90
21271;DHT22;10795;50.796;3.860;2022-12-29T05:24:37;10.40;99.90
21271;DHT22;10795;50.796;3.860;2022-12-29T05:27:04;10.40;99.90
21271;DHT22;10795;50.796;3.860;2022-12-29T05:29:58;10.30;99.90
21271;DHT22;10795;50.796;3.860;2022-12-29T05:32:24;10.30;99.90
21271;DHT22;10795;50.796;3.860;2022-12-29T05:34:51;10.30;99.90
21271;DHT22;10795;50.796;3.860;2022-12-29T05:37:18;10.20;99.90
21271;DHT22;10795;50.796;3.860;2022-12-29T05:39:44;10.30;99.90
21271;DHT22;10795;50.796;3.860;2022-12-29T05:42:10;10.20;99.90
21271;DHT22;10795;50.796;3.860;2022-12-29T05:44:56;10.20;99.90
21271;DHT22;10795;50.796;3.860;2022-12-29T05:47:51;10.10;99.90
21271;DHT22;10795;50.796;3.860;2022-12-29T05:50:26;10.10;99.90
21271;DHT22;10795;50.796;3.860;2022-12-29T05:53:07;10.20;99.90
21271;DHT22;10795;50.796;3.860;2022-12-29T05:55:34;10.10;99.90
21271;DHT22;10795;50.796;3.860;2022-12-29T05:58:00;10.10;99.90
21271;DHT22;10795;50.796;3.860;2022-12-29T06:00:27;10.10;99.90
21271;DHT22;10795;50.796;3.860;2022-12-29T06:02:52;10.10;99.90
21271;DHT22;10795;50.796;3.860;2022-12-29T06:05:18;10.10;99.90
21271;DHT22;10795;50.796;3.860;2022-12-29T06:07:44;10.10;99.90
21271;DHT22;10795;50.796;3.860;2022-12-29T06:10:13;10.10;99.90
21271;DHT22;10795;50.796;3.860;2022-12-29T06:12:57;10.10;99.90
21271;DHT22;10795;50.796;3.860;2022-12-29T06:15:23;10.20;99.90
21271;DHT22;10795;50.796;3.860;2022-12-29T06:17:49;10.20;99.90
21271;DHT22;10795;50.796;3.860;2022-12-29T06:20:16;10.10;99.90
21271;DHT22;10795;50.796;3.860;2022-12-29T06:22:42;10.10;99.90
21271;DHT22;10795;50.796;3.860;2022-12-29T06:25:09;10.30;99.90
21271;DHT22;10795;50.796;3.860;2022-12-29T06:27:35;10.30;99.90
21271;DHT22;10795;50.796;3.860;2022-12-29T06:30:01;10.30;99.90
21271;DHT22;10795;50.796;3.860;2022-12-29T06:32:28;10.20;99.90
21271;DHT22;10795;50.796;3.860;2022-12-29T06:34:59;10.30;99.90
21271;DHT22;10795;50.796;3.860;2022-12-29T06:37:25;10.30;99.90
21271;DHT22;10795;50.796;3.860;2022-12-29T06:39:50;10.30;99.90
21271;DHT22;10795;50.796;3.860;2022-12-29T06:42:16;10.40;99.90
21271;DHT22;10795;50.796;3.860;2022-12-29T06:45:04;10.40;99.90
21271;DHT22;10795;50.796;3.860;2022-12-29T06:47:29;10.40;99.90
21271;DHT22;10795;50.796;3.860;2022-12-29T06:49:55;10.40;99.90
21271;DHT22;10795;50.796;3.860;2022-12-29T06:52:21;10.40;99.90
21271;DHT22;10795;50.796;3.860;2022-12-29T06:54:49;10.40;99.90
21271;DHT22;10795;50.796;3.860;2022-12-29T06:57:15;10.40;99.90
21271;DHT22;10795;50.796;3.860;2022-12-29T06:59:41;10.40;99.90
21271;DHT22;10795;50.796;3.860;2022-12-29T07:02:08;10.50;99.90
21271;DHT22;10795;50.796;3.860;2022-12-29T07:04:34;10.50;99.90
21271;DHT22;10795;50.796;3.860;2022-12-29T07:07:00;10.40;99.90
21271;DHT22;10795;50.796;3.860;2022-12-29T07:09:26;10.40;99.90
21271;DHT22;10795;50.796;3.860;2022-12-29T07:11:52;10.40;99.90
21271;DHT22;10795;50.796;3.860;2022-12-29T07:14:17;10.40;99.90
21271;DHT22;10795;50.796;3.860;2022-12-29T07:16:43;10.50;99.90
21271;DHT22;10795;50.796;3.860;2022-12-29T07:19:09;10.50;99.90
21271;DHT22;10795;50.796;3.860;2022-12-29T07:21:35;10.40;99.90
21271;DHT22;10795;50.796;3.860;2022-12-29T07:24:01;10.40;99.90
21271;DHT22;10795;50.796;3.860;2022-12-29T07:26:27;10.50;99.90
21271;DHT22;10795;50.796;3.860;2022-12-29T07:28:53;10.50;99.90
21271;DHT22;10795;50.796;3.860;2022-12-29T07:31:21;10.50;99.90
21271;DHT22;10795;50.796;3.860;2022-12-29T07:33:47;10.50;99.90
21271;DHT22;10795;50.796;3.860;2022-12-29T07:36:14;10.50;99.90
21271;DHT22;10795;50.796;3.860;2022-12-29T07:38:41;10.50;99.90
21271;DHT22;10795;50.796;3.860;2022-12-29T07:41:07;10.50;99.90
21271;DHT22;10795;50.796;3.860;2022-12-29T07:43:33;10.50;99.90
21271;DHT22;10795;50.796;3.860;2022-12-29T07:46:18;10.60;99.90
21271;DHT22;10795;50.796;3.860;2022-12-29T07:48:43;10.60;99.90
21271;DHT22;10795;50.796;3.860;2022-12-29T07:51:09;10.50;99.90
21271;DHT22;10795;50.796;3.860;2022-12-29T07:53:35;10.50;99.90
21271;DHT22;10795;50.796;3.860;2022-12-29T07:56:01;10.50;99.90
21271;DHT22;10795;50.796;3.860;2022-12-29T07:58:27;10.50;99.90
21271;DHT22;10795;50.796;3.860;2022-12-29T08:00:54;10.50;99.90
21271;DHT22;10795;50.796;3.860;2022-12-29T08:03:20;10.50;99.90
21271;DHT22;10795;50.796;3.860;2022-12-29T08:05:46;10.60;99.90
21271;DHT22;10795;50.796;3.860;2022-12-29T08:08:12;10.50;99.90
21271;DHT22;10795;50.796;3.860;2022-12-29T08:10:37;10.50;99.90
21271;DHT22;10795;50.796;3.860;2022-12-29T08:13:03;10.50;99.90
21271;DHT22;10795;50.796;3.860;2022-12-29T08:15:29;10.50;99.90
21271;DHT22;10795;50.796;3.860;2022-12-29T08:17:55;10.50;99.90
21271;DHT22;10795;50.796;3.860;2022-12-29T08:20:20;10.40;99.90
21271;DHT22;10795;50.796;3.860;2022-12-29T08:22:46;10.50;99.90
21271;DHT22;10795;50.796;3.860;2022-12-29T08:25:12;10.40;99.90
21271;DHT22;10795;50.796;3.860;2022-12-29T08:27:38;10.50;99.90
21271;DHT22;10795;50.796;3.860;2022-12-29T08:30:04;10.50;99.90
21271;DHT22;10795;50.796;3.860;2022-12-29T08:32:30;10.50;99.90
21271;DHT22;10795;50.796;3.860;2022-12-29T08:34:56;10.40;99.90
21271;DHT22;10795;50.796;3.860;2022-12-29T08:37:22;10.40;99.90
21271;DHT22;10795;50.796;3.860;2022-12-29T08:39:48;10.50;99.90
21271;DHT22;10795;50.796;3.860;2022-12-29T08:42:14;10.50;99.90
21271;DHT22;10795;50.796;3.860;2022-12-29T08:44:40;10.40;99.90
21271;DHT22;10795;50.796;3.860;2022-12-29T08:47:06;10.30;99.90
21271;DHT22;10795;50.796;3.860;2022-12-29T08:49:32;10.20;99.90
21271;DHT22;10795;50.796;3.860;2022-12-29T08:51:59;10.20;99.90
21271;DHT22;10795;50.796;3.860;2022-12-29T08:54:25;10.20;99.90
21271;DHT22;10795;50.796;3.860;2022-12-29T08:56:50;10.10;99.90
21271;DHT22;10795;50.796;3.860;2022-12-29T08:59:17;10.10;99.90
21271;DHT22;10795;50.796;3.860;2022-12-29T09:01:46;10.10;99.90
21271;DHT22;10795;50.796;3.860;2022-12-29T09:04:11;10.00;99.90
21271;DHT22;10795;50.796;3.860;2022-12-29T09:06:37;9.90;99.90
21271;DHT22;10795;50.796;3.860;2022-12-29T09:09:03;9.80;99.90
21271;DHT22;10795;50.796;3.860;2022-12-29T09:11:29;9.90;99.90
21271;DHT22;10795;50.796;3.860;2022-12-29T09:13:55;9.90;99.90
21271;DHT22;10795;50.796;3.860;2022-12-29T09:16:22;9.90;99.90
21271;DHT22;10795;50.796;3.860;2022-12-29T09:18:48;9.80;99.90
21271;DHT22;10795;50.796;3.860;2022-12-29T09:21:14;10.00;99.90
21271;DHT22;10795;50.796;3.860;2022-12-29T09:23:40;9.90;99.90
21271;DHT22;10795;50.796;3.860;2022-12-29T09:26:07;9.90;99.90
21271;DHT22;10795;50.796;3.860;2022-12-29T09:28:33;9.90;99.90
21271;DHT22;10795;50.796;3.860;2022-12-29T09:30:59;10.00;99.90
21271;DHT22;10795;50.796;3.860;2022-12-29T09:33:25;10.10;99.90
21271;DHT22;10795;50.796;3.860;2022-12-29T09:35:56;10.10;99.90
21271;DHT22;10795;50.796;3.860;2022-12-29T09:38:23;10.10;99.90
21271;DHT22;10795;50.796;3.860;2022-12-29T09:41:20;10.10;99.90
21271;DHT22;10795;50.796;3.860;2022-12-29T09:43:52;10.10;99.90
21271;DHT22;10795;50.796;3.860;2022-12-29T09:46:26;10.10;99.90
21271;DHT22;10795;50.796;3.860;2022-12-29T09:51:36;10.00;99.90
21271;DHT22;10795;50.796;3.860;2022-12-29T09:54:39;10.00;99.90
21271;DHT22;10795;50.796;3.860;2022-12-29T09:58:03;10.10;99.90
21271;DHT22;10795;50.796;3.860;2022-12-29T10:00:26;10.10;99.90
21271;DHT22;10795;50.796;3.860;2022-12-29T10:03:15;10.10;99.90
21271;DHT22;10795;50.796;3.860;2022-12-29T10:06:02;10.10;99.90
21271;DHT22;10795;50.796;3.860;2022-12-29T10:08:33;10.20;99.90
21271;DHT22;10795;50.796;3.860;2022-12-29T10:14:12;10.30;99.90
21271;DHT22;10795;50.796;3.860;2022-12-29T10:25:37;10.70;99.90
21271;DHT22;10795;50.796;3.860;2022-12-29T10:28:10;10.70;99.90
21271;DHT22;10795;50.796;3.860;2022-12-29T10:30:40;10.80;99.90
21271;DHT22;10795;50.796;3.860;2022-12-29T10:33:08;10.90;99.90
21271;DHT22;10795;50.796;3.860;2022-12-29T10:35:36;11.10;99.90
21271;DHT22;10795;50.796;3.860;2022-12-29T10:40:54;11.10;99.90
21271;DHT22;10795;50.796;3.860;2022-12-29T10:43:32;11.10;99.90
21271;DHT22;10795;50.796;3.860;2022-12-29T10:46:09;11.20;99.90
21271;DHT22;10795;50.796;3.860;2022-12-29T10:48:36;11.30;99.90
21271;DHT22;10795;50.796;3.860;2022-12-29T10:51:05;11.30;99.90
21271;DHT22;10795;50.796;3.860;2022-12-29T10:53:54;11.40;99.90
21271;DHT22;10795;50.796;3.860;2022-12-29T10:56:43;11.60;99.90
21271;DHT22;10795;50.796;3.860;2022-12-29T10:59:21;11.70;99.90
21271;DHT22;10795;50.796;3.860;2022-12-29T11:07:07;11.30;99.90
21271;DHT22;10795;50.796;3.860;2022-12-29T11:09:35;11.20;99.90
21271;DHT22;10795;50.796;3.860;2022-12-29T11:14:44;10.80;99.90
21271;DHT22;10795;50.796;3.860;2022-12-29T11:17:15;10.70;99.90
21271;DHT22;10795;50.796;3.860;2022-12-29T11:19:42;10.60;99.90
21271;DHT22;10795;50.796;3.860;2022-12-29T11:24:47;10.70;99.90
21271;DHT22;10795;50.796;3.860;2022-12-29T11:27:22;10.60;99.90
21271;DHT22;10795;50.796;3.860;2022-12-29T11:29:50;10.60;99.90
21271;DHT22;10795;50.796;3.860;2022-12-29T11:34:47;10.50;99.90
21271;DHT22;10795;50.796;3.860;2022-12-29T11:37:21;10.60;99.90
21271;DHT22;10795;50.796;3.860;2022-12-29T11:45:27;10.70;99.90
21271;DHT22;10795;50.796;3.860;2022-12-29T11:48:08;10.60;99.90
21271;DHT22;10795;50.796;3.860;2022-12-29T11:50:39;10.60;99.90
21271;DHT22;10795;50.796;3.860;2022-12-29T11:55:39;10.60;99.90
21271;DHT22;10795;50.796;3.860;2022-12-29T11:58:05;10.50;99.90
21271;DHT22;10795;50.796;3.860;2022-12-29T12:00:34;10.60;99.90
21271;DHT22;10795;50.796;3.860;2022-12-29T12:03:04;10.50;99.90
21271;DHT22;10795;50.796;3.860;2022-12-29T12:11:31;10.50;99.90
21271;DHT22;10795;50.796;3.860;2022-12-29T12:14:21;10.60;99.90
21271;DHT22;10795;50.796;3.860;2022-12-29T12:17:33;10.70;99.90
21271;DHT22;10795;50.796;3.860;2022-12-29T12:25:43;10.70;99.90
21271;DHT22;10795;50.796;3.860;2022-12-29T12:28:16;10.50;99.90
21271;DHT22;10795;50.796;3.860;2022-12-29T12:30:52;10.70;99.90
21271;DHT22;10795;50.796;3.860;2022-12-29T12:33:27;10.50;99.90
21271;DHT22;10795;50.796;3.860;2022-12-29T12:44:30;10.10;99.90
21271;DHT22;10795;50.796;3.860;2022-12-29T13:12:00;10.70;99.90
21271;DHT22;10795;50.796;3.860;2022-12-29T13:17:43;10.70;99.90
21271;DHT22;10795;50.796;3.860;2022-12-29T13:20:22;10.70;99.90
21271;DHT22;10795;50.796;3.860;2022-12-29T13:23:02;10.70;99.90
21271;DHT22;10795;50.796;3.860;2022-12-29T13:25:48;10.70;99.90
21271;DHT22;10795;50.796;3.860;2022-12-29T13:28:38;10.70;99.90
21271;DHT22;10795;50.796;3.860;2022-12-29T13:31:25;10.70;99.90
21271;DHT22;10795;50.796;3.860;2022-12-29T13:34:32;10.70;99.90
21271;DHT22;10795;50.796;3.860;2022-12-29T13:37:03;10.60;99.90
21271;DHT22;10795;50.796;3.860;2022-12-29T13:39:59;10.50;99.90
21271;DHT22;10795;50.796;3.860;2022-12-29T13:42:27;10.60;99.90
21271;DHT22;10795;50.796;3.860;2022-12-29T13:45:05;10.50;99.90
21271;DHT22;10795;50.796;3.860;2022-12-29T13:47:51;10.40;99.90
21271;DHT22;10795;50.796;3.860;2022-12-29T13:50:21;10.40;99.90
21271;DHT22;10795;50.796;3.860;2022-12-29T13:56:18;10.00;99.90
21271;DHT22;10795;50.796;3.860;2022-12-29T13:58:53;9.80;99.90
21271;DHT22;10795;50.796;3.860;2022-12-29T14:01:37;9.60;99.90
21271;DHT22;10795;50.796;3.860;2022-12-29T14:04:14;9.70;99.90
21271;DHT22;10795;50.796;3.860;2022-12-29T14:06:40;9.60;99.90
21271;DHT22;10795;50.796;3.860;2022-12-29T14:11:59;9.70;99.90
21271;DHT22;10795;50.796;3.860;2022-12-29T14:14:28;9.50;99.90
21271;DHT22;10795;50.796;3.860;2022-12-29T14:17:11;9.70;99.90
21271;DHT22;10795;50.796;3.860;2022-12-29T14:19:44;9.60;99.90
21271;DHT22;10795;50.796;3.860;2022-12-29T14:22:11;9.50;99.90
21271;DHT22;10795;50.796;3.860;2022-12-29T14:24:44;9.90;99.90
21271;DHT22;10795;50.796;3.860;2022-12-29T14:34:54;9.30;99.90
21271;DHT22;10795;50.796;3.860;2022-12-29T14:42:30;9.50;99.90
21271;DHT22;10795;50.796;3.860;2022-12-29T14:45:04;8.80;99.90
21271;DHT22;10795;50.796;3.860;2022-12-29T14:47:35;8.60;99.90
21271;DHT22;10795;50.796;3.860;2022-12-29T14:50:12;8.40;99.90
21271;DHT22;10795;50.796;3.860;2022-12-29T14:52:56;8.40;99.90
21271;DHT22;10795;50.796;3.860;2022-12-29T15:00:47;8.40;99.90
21271;DHT22;10795;50.796;3.860;2022-12-29T15:03:23;8.40;99.90
21271;DHT22;10795;50.796;3.860;2022-12-29T15:05:56;8.50;99.90
21271;DHT22;10795;50.796;3.860;2022-12-29T15:08:29;8.60;99.90
21271;DHT22;10795;50.796;3.860;2022-12-29T15:11:09;8.50;99.90
21271;DHT22;10795;50.796;3.860;2022-12-29T15:13:38;8.50;99.90
21271;DHT22;10795;50.796;3.860;2022-12-29T15:16:13;8.50;99.90
21271;DHT22;10795;50.796;3.860;2022-12-29T15:18:45;8.60;99.90
21271;DHT22;10795;50.796;3.860;2022-12-29T15:21:13;8.50;99.90
21271;DHT22;10795;50.796;3.860;2022-12-29T15:23:42;8.60;99.90
21271;DHT22;10795;50.796;3.860;2022-12-29T15:26:10;8.50;99.90
21271;DHT22;10795;50.796;3.860;2022-12-29T15:28:44;8.50;99.90
21271;DHT22;10795;50.796;3.860;2022-12-29T15:31:21;8.40;99.90
21271;DHT22;10795;50.796;3.860;2022-12-29T15:33:52;8.20;99.90
21271;DHT22;10795;50.796;3.860;2022-12-29T15:36:24;8.30;99.90
21271;DHT22;10795;50.796;3.860;2022-12-29T15:38:50;8.20;99.90
21271;DHT22;10795;50.796;3.860;2022-12-29T15:44:17;8.30;99.90
21271;DHT22;10795;50.796;3.860;2022-12-29T15:46:46;8.20;99.90
21271;DHT22;10795;50.796;3.860;2022-12-29T15:49:13;8.20;99.90
21271;DHT22;10795;50.796;3.860;2022-12-29T15:51:40;8.40;99.90
21271;DHT22;10795;50.796;3.860;2022-12-29T15:54:19;8.30;99.90
21271;DHT22;10795;50.796;3.860;2022-12-29T15:56:47;8.30;99.90
21271;DHT22;10795;50.796;3.860;2022-12-29T15:59:30;8.40;99.90
21271;DHT22;10795;50.796;3.860;2022-12-29T16:01:57;8.40;99.90
21271;DHT22;10795;50.796;3.860;2022-12-29T16:04:25;8.40;99.90
21271;DHT22;10795;50.796;3.860;2022-12-29T16:07:00;8.30;99.90
21271;DHT22;10795;50.796;3.860;2022-12-29T16:09:42;8.40;99.90
21271;DHT22;10795;50.796;3.860;2022-12-29T16:12:21;8.40;99.90
21271;DHT22;10795;50.796;3.860;2022-12-29T16:15:05;8.40;99.90
21271;DHT22;10795;50.796;3.860;2022-12-29T16:17:36;8.50;99.90
21271;DHT22;10795;50.796;3.860;2022-12-29T16:22:50;8.30;99.90
21271;DHT22;10795;50.796;3.860;2022-12-29T16:25:43;8.30;99.90
21271;DHT22;10795;50.796;3.860;2022-12-29T16:28:21;8.40;99.90
21271;DHT22;10795;50.796;3.860;2022-12-29T16:31:06;8.40;99.90
21271;DHT22;10795;50.796;3.860;2022-12-29T16:33:46;8.50;99.90
21271;DHT22;10795;50.796;3.860;2022-12-29T16:39:30;8.30;99.90
21271;DHT22;10795;50.796;3.860;2022-12-29T16:41:56;8.20;99.90
21271;DHT22;10795;50.796;3.860;2022-12-29T16:44:28;8.30;99.90
21271;DHT22;10795;50.796;3.860;2022-12-29T16:47:01;8.30;99.90
21271;DHT22;10795;50.796;3.860;2022-12-29T16:49:30;8.50;99.90
21271;DHT22;10795;50.796;3.860;2022-12-29T16:51:56;8.40;99.90
21271;DHT22;10795;50.796;3.860;2022-12-29T16:54:34;8.40;99.90
21271;DHT22;10795;50.796;3.860;2022-12-29T16:57:01;8.30;99.90
21271;DHT22;10795;50.796;3.860;2022-12-29T16:59:45;8.40;99.90
21271;DHT22;10795;50.796;3.860;2022-12-29T17:02:14;8.40;99.90
21271;DHT22;10795;50.796;3.860;2022-12-29T17:04:41;8.30;99.90
21271;DHT22;10795;50.796;3.860;2022-12-29T17:07:18;8.30;99.90
21271;DHT22;10795;50.796;3.860;2022-12-29T17:09:44;8.30;99.90
21271;DHT22;10795;50.796;3.860;2022-12-29T17:12:16;8.20;99.90
21271;DHT22;10795;50.796;3.860;2022-12-29T17:14:47;8.30;99.90
21271;DHT22;10795;50.796;3.860;2022-12-29T17:17:38;8.10;99.90
21271;DHT22;10795;50.796;3.860;2022-12-29T17:20:29;8.10;99.90
21271;DHT22;10795;50.796;3.860;2022-12-29T17:22:56;8.20;99.90
21271;DHT22;10795;50.796;3.860;2022-12-29T17:25:37;8.20;99.90
21271;DHT22;10795;50.796;3.860;2022-12-29T17:28:20;8.30;99.90
21271;DHT22;10795;50.796;3.860;2022-12-29T17:30:49;8.10;99.90
21271;DHT22;10795;50.796;3.860;2022-12-29T17:33:27;8.00;99.90
21271;DHT22;10795;50.796;3.860;2022-12-29T17:35:55;8.10;99.90
21271;DHT22;10795;50.796;3.860;2022-12-29T17:38:33;8.10;99.90
21271;DHT22;10795;50.796;3.860;2022-12-29T17:41:00;8.10;99.90
21271;DHT22;10795;50.796;3.860;2022-12-29T17:43:26;8.10;99.90
21271;DHT22;10795;50.796;3.860;2022-12-29T17:45:54;8.00;99.90
21271;DHT22;10795;50.796;3.860;2022-12-29T17:48:21;8.10;99.90
21271;DHT22;10795;50.796;3.860;2022-12-29T17:50:48;8.10;99.90
21271;DHT22;10795;50.796;3.860;2022-12-29T17:53:20;8.20;99.90
21271;DHT22;10795;50.796;3.860;2022-12-29T17:55:46;8.00;99.90
21271;DHT22;10795;50.796;3.860;2022-12-29T17:58:17;8.00;99.90
21271;DHT22;10795;50.796;3.860;2022-12-29T18:00:43;8.00;99.90
21271;DHT22;10795;50.796;3.860;2022-12-29T18:03:17;8.40;99.90
21271;DHT22;10795;50.796;3.860;2022-12-29T18:05:44;8.20;99.90
21271;DHT22;10795;50.796;3.860;2022-12-29T18:08:11;8.00;99.90
21271;DHT22;10795;50.796;3.860;2022-12-29T18:10:37;7.90;99.90
21271;DHT22;10795;50.796;3.860;2022-12-29T18:13:04;7.90;99.90
21271;DHT22;10795;50.796;3.860;2022-12-29T18:15:32;7.80;99.90
21271;DHT22;10795;50.796;3.860;2022-12-29T18:18:12;7.90;99.90
21271;DHT22;10795;50.796;3.860;2022-12-29T18:20:40;7.90;99.90
21271;DHT22;10795;50.796;3.860;2022-12-29T18:23:21;7.90;99.90
21271;DHT22;10795;50.796;3.860;2022-12-29T18:26:05;7.90;99.90
21271;DHT22;10795;50.796;3.860;2022-12-29T18:28:31;7.90;99.90
21271;DHT22;10795;50.796;3.860;2022-12-29T18:30:59;7.90;99.90
21271;DHT22;10795;50.796;3.860;2022-12-29T18:33:26;8.00;99.90
21271;DHT22;10795;50.796;3.860;2022-12-29T18:36:01;8.00;99.90
21271;DHT22;10795;50.796;3.860;2022-12-29T18:38:28;8.10;99.90
21271;DHT22;10795;50.796;3.860;2022-12-29T18:40:54;8.00;99.90
21271;DHT22;10795;50.796;3.860;2022-12-29T18:43:20;8.10;99.90
21271;DHT22;10795;50.796;3.860;2022-12-29T18:45:47;8.10;99.90
21271;DHT22;10795;50.796;3.860;2022-12-29T18:48:17;8.00;99.90
21271;DHT22;10795;50.796;3.860;2022-12-29T18:50:44;8.00;99.90